createdAt,value
2018-04-29T00:01:39.777Z,9.40
2018-04-29T00:04:07.576Z,8.43
2018-04-29T00:06:36.859Z,9.30
2018-04-29T00:09:05.051Z,8.90
2018-04-29T00:11:32.332Z,8.90
2018-04-29T00:13:59.624Z,9.73
2018-04-29T00:18:58.596Z,9.27
2018-04-29T00:23:57.479Z,8.50
2018-04-29T00:26:25.036Z,8.30
2018-04-29T00:28:52.353Z,11.60
2018-04-29T00:31:19.748Z,9.10
2018-04-29T00:33:48.951Z,10.30
2018-04-29T00:38:47.910Z,9.73
2018-04-29T00:41:15.225Z,9.27
2018-04-29T00:43:42.621Z,10.43
2018-04-29T00:46:09.943Z,9.37
2018-04-29T00:48:37.247Z,11.10
2018-04-29T00:51:04.598Z,11.97
2018-04-29T00:53:31.893Z,10.17
2018-04-29T00:56:03.346Z,10.77
2018-04-29T00:58:30.646Z,9.77
2018-04-29T01:00:57.972Z,9.37
2018-04-29T01:03:27.314Z,10.67
2018-04-29T01:05:54.668Z,10.10
2018-04-29T01:08:22.200Z,10.40
2018-04-29T01:10:49.540Z,9.50
2018-04-29T01:13:16.968Z,9.37
2018-04-29T01:15:44.267Z,10.53
2018-04-29T01:18:11.568Z,9.07
2018-04-29T01:20:38.869Z,9.50
2018-04-29T01:25:37.836Z,10.20
2018-04-29T01:28:05.467Z,10.97
2018-04-29T01:30:32.754Z,10.33
2018-04-29T01:33:00.055Z,10.37
2018-04-29T01:35:27.796Z,10.67
2018-04-29T01:37:55.155Z,10.07
2018-04-29T01:40:22.433Z,9.03
2018-04-29T01:42:49.783Z,9.00
2018-04-29T01:45:17.242Z,9.70
2018-04-29T01:47:44.802Z,8.60
2018-04-29T01:50:12.156Z,8.80
2018-04-29T01:52:39.454Z,8.63
2018-04-29T01:55:06.783Z,8.63
2018-04-29T02:00:05.852Z,8.77
2018-04-29T02:02:33.310Z,8.80
2018-04-29T02:05:00.706Z,9.77
2018-04-29T02:07:27.986Z,10.07
2018-04-29T02:09:55.634Z,8.03
2018-04-29T02:12:22.915Z,9.20
2018-04-29T02:14:50.343Z,8.50
2018-04-29T02:17:17.653Z,9.50
2018-04-29T02:19:45.001Z,8.70
2018-04-29T02:22:12.535Z,8.93
2018-04-29T02:24:40.198Z,8.50
2018-04-29T02:27:07.607Z,7.53
2018-04-29T02:29:35.095Z,9.43
2018-04-29T02:32:02.327Z,9.13
2018-04-29T02:34:29.622Z,9.23
2018-04-29T02:36:56.927Z,8.77
2018-04-29T02:39:24.202Z,8.37
2018-04-29T02:41:51.493Z,8.17
2018-04-29T02:44:18.769Z,8.37
2018-04-29T02:46:46.069Z,7.77
2018-04-29T02:49:14.314Z,9.47
2018-04-29T02:51:41.598Z,8.37
2018-04-29T02:54:08.984Z,8.53
2018-04-29T02:56:36.272Z,8.73
2018-04-29T02:59:03.604Z,8.17
2018-04-29T03:01:30.888Z,8.30
2018-04-29T03:03:58.183Z,8.77
2018-04-29T03:06:25.482Z,8.97
2018-04-29T03:08:53.477Z,10.20
2018-04-29T03:11:20.792Z,9.90
2018-04-29T03:13:48.103Z,8.93
2018-04-29T03:16:15.459Z,8.90
2018-04-29T03:18:42.786Z,8.00
2018-04-29T03:21:10.158Z,8.30
2018-04-29T03:23:37.446Z,7.77
2018-04-29T03:26:04.779Z,7.10
2018-04-29T03:28:32.054Z,9.30
2018-04-29T03:30:59.441Z,8.43
2018-04-29T03:33:26.721Z,7.90
2018-04-29T03:35:54.015Z,9.40
2018-04-29T03:38:21.349Z,9.27
2018-04-29T03:40:48.660Z,8.60
2018-04-29T03:43:15.964Z,9.30
2018-04-29T03:45:43.245Z,8.10
2018-04-29T03:48:10.542Z,8.30
2018-04-29T03:50:39.865Z,7.40
2018-04-29T03:53:07.177Z,8.87
2018-04-29T03:58:14.073Z,7.77
2018-04-29T04:00:47.142Z,8.80
2018-04-29T04:03:20.332Z,8.63
2018-04-29T04:05:47.780Z,7.83
2018-04-29T04:08:15.135Z,8.40
2018-04-29T04:10:42.475Z,8.40
2018-04-29T04:13:09.845Z,9.23
2018-04-29T04:15:37.205Z,7.43
2018-04-29T04:18:04.552Z,8.73
2018-04-29T04:20:31.846Z,10.10
2018-04-29T04:22:59.131Z,8.80
2018-04-29T04:25:26.431Z,7.20
2018-04-29T04:27:53.698Z,7.30
2018-04-29T04:30:22.584Z,8.20
2018-04-29T04:32:49.945Z,7.90
2018-04-29T04:35:17.238Z,7.67
2018-04-29T04:37:44.562Z,9.50
2018-04-29T04:40:12.617Z,8.07
2018-04-29T04:42:40.001Z,8.20
2018-04-29T04:45:07.371Z,8.80
2018-04-29T04:47:34.697Z,8.10
2018-04-29T04:50:02.027Z,8.37
2018-04-29T04:52:29.414Z,8.70
2018-04-29T04:54:56.752Z,8.17
2018-04-29T04:57:23.999Z,8.23
2018-04-29T04:59:51.400Z,8.30
2018-04-29T05:02:18.777Z,9.93
2018-04-29T05:04:46.110Z,7.50
2018-04-29T05:07:13.455Z,7.77
2018-04-29T05:09:40.745Z,8.57
2018-04-29T05:12:07.974Z,7.23
2018-04-29T05:14:35.791Z,8.30
2018-04-29T05:17:03.154Z,7.63
2018-04-29T05:19:30.478Z,7.93
2018-04-29T05:21:57.829Z,6.93
2018-04-29T05:24:25.237Z,6.80
2018-04-29T05:26:52.531Z,7.50
2018-04-29T05:29:19.812Z,7.43
2018-04-29T05:31:47.110Z,7.80
2018-04-29T05:34:14.481Z,8.20
2018-04-29T05:36:42.735Z,7.40
2018-04-29T05:39:10.114Z,7.60
2018-04-29T05:41:37.397Z,7.73
2018-04-29T05:44:04.701Z,8.77
2018-04-29T05:46:32.057Z,6.97
2018-04-29T05:48:59.415Z,7.30
2018-04-29T05:51:26.766Z,6.90
2018-04-29T05:53:54.084Z,7.50
2018-04-29T05:56:22.352Z,7.80
2018-04-29T05:58:49.639Z,7.80
2018-04-29T06:01:16.972Z,7.47
2018-04-29T06:03:44.637Z,8.17
2018-04-29T06:06:12.013Z,9.13
2018-04-29T06:08:39.412Z,7.60
2018-04-29T06:11:06.757Z,7.40
2018-04-29T06:13:34.157Z,8.20
2018-04-29T06:16:01.446Z,7.37
2018-04-29T06:18:28.759Z,7.70
2018-04-29T06:20:56.081Z,7.10
2018-04-29T06:23:23.372Z,8.70
2018-04-29T06:25:50.757Z,8.70
2018-04-29T06:28:18.140Z,8.47
2018-04-29T06:30:45.429Z,8.10
2018-04-29T06:33:12.707Z,7.97
2018-04-29T06:35:39.998Z,8.03
2018-04-29T06:38:07.299Z,7.10
2018-04-29T06:40:34.608Z,7.33
2018-04-29T06:43:01.901Z,8.27
2018-04-29T06:45:29.190Z,7.70
2018-04-29T06:47:56.642Z,9.80
2018-04-29T06:50:23.993Z,7.70
2018-04-29T06:52:51.379Z,7.83
2018-04-29T06:55:18.777Z,8.07
2018-04-29T06:57:46.684Z,8.17
2018-04-29T07:00:13.990Z,8.63
2018-04-29T07:02:41.298Z,8.13
2018-04-29T07:05:08.597Z,8.20
2018-04-29T07:07:35.901Z,7.80
2018-04-29T07:10:03.239Z,7.83
2018-04-29T07:12:30.586Z,8.83
2018-04-29T07:14:57.972Z,7.97
2018-04-29T07:17:25.327Z,9.03
2018-04-29T07:19:52.725Z,8.77
2018-04-29T07:22:20.078Z,8.60
2018-04-29T07:24:47.438Z,8.70
2018-04-29T07:27:15.000Z,7.90
2018-04-29T07:29:42.329Z,8.40
2018-04-29T07:32:10.478Z,8.07
2018-04-29T07:34:37.795Z,8.90
2018-04-29T07:37:05.194Z,7.77
2018-04-29T07:39:32.539Z,9.10
2018-04-29T07:41:59.832Z,8.57
2018-04-29T07:44:27.640Z,8.80
2018-04-29T07:46:54.929Z,8.17
2018-04-29T07:49:22.287Z,9.03
2018-04-29T07:51:49.870Z,9.40
2018-04-29T07:54:17.397Z,9.10
2018-04-29T07:56:44.816Z,8.87
2018-04-29T07:59:12.151Z,8.20
2018-04-29T08:01:39.520Z,9.37
2018-04-29T08:04:06.856Z,8.90
2018-04-29T08:06:34.964Z,8.00
2018-04-29T08:09:02.327Z,7.57
2018-04-29T08:11:29.643Z,8.30
2018-04-29T08:13:56.994Z,7.50
2018-04-29T08:16:24.404Z,8.80
2018-04-29T08:21:23.860Z,8.10
2018-04-29T08:23:51.185Z,9.00
2018-04-29T08:26:18.712Z,7.03
2018-04-29T08:28:46.046Z,8.07
2018-04-29T08:31:15.293Z,7.90
2018-04-29T08:33:42.794Z,7.47
2018-04-29T08:36:10.223Z,7.13
2018-04-29T08:38:37.511Z,7.00
2018-04-29T08:41:05.751Z,7.93
2018-04-29T08:43:33.097Z,7.47
2018-04-29T08:46:00.374Z,7.30
2018-04-29T08:48:27.683Z,8.87
2018-04-29T08:50:55.128Z,7.33
2018-04-29T08:53:23.487Z,7.07
2018-04-29T08:55:51.159Z,6.30
2018-04-29T08:58:19.861Z,7.67
2018-04-29T09:00:47.495Z,7.37
2018-04-29T09:03:14.862Z,7.80
2018-04-29T09:05:42.194Z,7.20
2018-04-29T09:08:09.898Z,6.73
2018-04-29T09:10:38.300Z,7.27
2018-04-29T09:13:05.934Z,7.07
2018-04-29T09:15:33.287Z,6.60
2018-04-29T09:18:00.760Z,6.77
2018-04-29T09:23:00.759Z,5.90
2018-04-29T09:25:28.713Z,6.13
2018-04-29T09:27:58.307Z,5.67
2018-04-29T09:32:57.186Z,6.30
2018-04-29T09:35:25.706Z,6.60
2018-04-29T09:37:53.208Z,5.70
2018-04-29T09:40:20.589Z,5.47
2018-04-29T09:42:47.983Z,6.67
2018-04-29T09:45:16.367Z,6.40
2018-04-29T09:47:43.734Z,5.87
2018-04-29T09:55:15.574Z,6.20
2018-04-29T09:57:42.822Z,5.80
2018-04-29T10:00:10.190Z,5.20
2018-04-29T10:02:43.204Z,5.53
2018-04-29T10:05:10.483Z,4.80
2018-04-29T10:07:37.786Z,5.70
2018-04-29T10:10:05.102Z,5.93
2018-04-29T10:15:35.422Z,6.03
2018-04-29T10:18:03.394Z,4.93
2018-04-29T10:20:30.890Z,4.47
2018-04-29T10:22:58.225Z,6.97
2018-04-29T10:25:25.557Z,5.93
2018-04-29T10:27:52.978Z,5.47
2018-04-29T10:30:20.532Z,5.80
2018-04-29T10:32:47.945Z,5.70
2018-04-29T10:35:15.207Z,4.00
2018-04-29T10:37:42.645Z,4.50
2018-04-29T10:40:10.148Z,6.20
2018-04-29T10:42:37.528Z,4.63
2018-04-29T10:45:05.082Z,4.50
2018-04-29T10:47:32.420Z,5.30
2018-04-29T10:49:59.755Z,4.93
2018-04-29T10:52:27.066Z,5.13
2018-04-29T10:54:54.869Z,5.00
2018-04-29T10:57:22.338Z,4.73
2018-04-29T10:59:49.907Z,4.40
2018-04-29T11:02:17.409Z,4.27
2018-04-29T11:04:44.735Z,4.50
2018-04-29T11:07:12.040Z,4.77
2018-04-29T11:09:39.527Z,3.73
2018-04-29T11:12:07.056Z,4.23
2018-04-29T11:14:34.429Z,4.63
2018-04-29T11:17:01.734Z,4.27
2018-04-29T11:19:29.029Z,4.73
2018-04-29T11:21:56.354Z,4.37
2018-04-29T11:24:23.683Z,4.43
2018-04-29T11:26:51.021Z,4.60
2018-04-29T11:29:18.565Z,3.50
2018-04-29T11:31:45.884Z,4.27
2018-04-29T11:34:13.173Z,3.63
2018-04-29T11:36:40.474Z,4.17
2018-04-29T11:39:07.989Z,4.40
2018-04-29T11:44:07.496Z,3.87
2018-04-29T11:49:06.427Z,4.20
2018-04-29T11:51:33.858Z,4.20
2018-04-29T11:54:01.150Z,4.30
2018-04-29T11:56:28.462Z,3.70
2018-04-29T11:58:55.737Z,4.60
2018-04-29T12:03:56.646Z,3.60
2018-04-29T12:06:23.952Z,3.67
2018-04-29T12:08:54.361Z,4.87
2018-04-29T12:11:22.659Z,5.30
2018-04-29T12:13:50.537Z,3.67
2018-04-29T12:16:20.878Z,3.30
2018-04-29T12:18:48.391Z,3.97
2018-04-29T12:21:16.159Z,3.27
2018-04-29T12:23:43.483Z,3.47
2018-04-29T12:26:10.897Z,4.00
2018-04-29T12:28:38.365Z,4.20
2018-04-29T12:31:05.761Z,3.90
2018-04-29T12:33:33.207Z,4.33
2018-04-29T12:36:00.498Z,4.63
2018-04-29T12:38:27.852Z,3.83
2018-04-29T12:40:55.194Z,3.53
2018-04-29T12:43:23.254Z,4.57
2018-04-29T12:45:50.630Z,3.90
2018-04-29T12:48:18.644Z,3.47
2018-04-29T12:50:46.025Z,4.87
2018-04-29T12:53:13.327Z,4.50
2018-04-29T12:55:41.603Z,4.07
2018-04-29T12:58:08.896Z,3.20
2018-04-29T13:00:36.357Z,3.17
2018-04-29T13:03:03.660Z,4.07
2018-04-29T13:05:30.963Z,3.93
2018-04-29T13:07:58.355Z,4.70
2018-04-29T13:10:25.690Z,3.60
2018-04-29T13:12:53.219Z,4.10
2018-04-29T13:15:20.636Z,3.20
2018-04-29T13:20:20.326Z,3.27
2018-04-29T13:22:47.683Z,4.00
2018-04-29T13:25:15.080Z,3.30
2018-04-29T13:27:42.445Z,3.47
2018-04-29T13:30:09.790Z,4.00
2018-04-29T13:32:37.102Z,3.00
2018-04-29T13:35:04.478Z,3.67
2018-04-29T13:37:32.063Z,2.87
2018-04-29T13:39:59.394Z,4.17
2018-04-29T13:42:26.706Z,3.30
2018-04-29T13:44:54.006Z,4.03
2018-04-29T13:47:21.355Z,3.97
2018-04-29T13:49:48.774Z,4.73
2018-04-29T13:52:16.239Z,3.90
2018-04-29T13:54:43.578Z,3.80
2018-04-29T13:57:10.998Z,4.23
2018-04-29T13:59:38.584Z,4.00
2018-04-29T14:02:05.986Z,3.50
2018-04-29T14:04:33.350Z,4.70
2018-04-29T14:07:00.746Z,3.87
2018-04-29T14:09:28.182Z,3.70
2018-04-29T14:11:58.195Z,4.00
2018-04-29T14:14:26.813Z,4.23
2018-04-29T14:16:54.109Z,4.20
2018-04-29T14:19:21.586Z,3.93
2018-04-29T14:21:48.989Z,3.50
2018-04-29T14:24:16.356Z,4.07
2018-04-29T14:26:43.619Z,3.77
2018-04-29T14:31:42.455Z,5.77
2018-04-29T14:34:09.754Z,4.37
2018-04-29T14:36:37.138Z,3.90
2018-04-29T14:39:04.426Z,3.90
2018-04-29T14:41:31.792Z,3.30
2018-04-29T14:43:59.114Z,4.70
2018-04-29T14:46:26.490Z,4.50
2018-04-29T14:48:53.868Z,4.17
2018-04-29T14:51:21.594Z,3.73
2018-04-29T14:53:48.922Z,3.57
2018-04-29T14:56:17.834Z,5.00
2018-04-29T14:58:45.120Z,3.30
2018-04-29T15:01:12.717Z,3.60
2018-04-29T15:03:40.111Z,4.10
2018-04-29T15:06:07.458Z,3.43
2018-04-29T15:08:34.863Z,3.90
2018-04-29T15:11:02.264Z,4.60
2018-04-29T15:13:29.600Z,3.97
2018-04-29T15:15:57.003Z,4.03
2018-04-29T15:18:30.161Z,7.33
2018-04-29T15:20:58.692Z,4.93
2018-04-29T15:23:26.050Z,3.50
2018-04-29T15:25:53.483Z,3.50
2018-04-29T15:30:52.534Z,3.60
2018-04-29T15:33:19.907Z,3.10
2018-04-29T15:35:47.225Z,5.20
2018-04-29T15:38:14.614Z,3.87
2018-04-29T15:40:44.795Z,4.43
2018-04-29T15:43:12.158Z,4.10
2018-04-29T15:45:39.507Z,3.47
2018-04-29T15:48:06.977Z,3.77
2018-04-29T15:53:06.040Z,5.00
2018-04-29T15:58:05.543Z,4.03
2018-04-29T16:00:32.844Z,14.30
2018-04-29T16:03:00.194Z,5.30
2018-04-29T16:07:59.131Z,4.40
2018-04-29T16:10:26.417Z,4.10
2018-04-29T16:12:53.802Z,6.10
2018-04-29T16:15:22.061Z,4.73
2018-04-29T16:17:49.489Z,5.27
2018-04-29T16:20:16.898Z,4.60
2018-04-29T16:22:44.385Z,4.73
2018-04-29T16:25:11.686Z,3.20
2018-04-29T16:27:39.166Z,3.90
2018-04-29T16:30:07.327Z,4.27
2018-04-29T16:32:34.691Z,4.30
2018-04-29T16:35:02.044Z,3.67
2018-04-29T16:37:30.768Z,4.13
2018-04-29T16:39:58.124Z,3.40
2018-04-29T16:42:25.445Z,4.00
2018-04-29T16:44:52.838Z,4.20
2018-04-29T16:49:51.819Z,3.30
2018-04-29T16:52:19.314Z,4.40
2018-04-29T16:54:46.716Z,4.27
2018-04-29T16:57:14.301Z,3.30
2018-04-29T16:59:41.641Z,3.60
2018-04-29T17:02:09.140Z,4.97
2018-04-29T17:04:36.515Z,5.17
2018-04-29T17:09:37.459Z,4.30
2018-04-29T17:12:05.083Z,5.10
2018-04-29T17:14:33.547Z,4.10
2018-04-29T17:17:00.886Z,3.83
2018-04-29T17:19:28.215Z,3.73
2018-04-29T17:21:55.661Z,3.40
2018-04-29T17:24:22.960Z,3.87
2018-04-29T17:26:50.387Z,4.10
2018-04-29T17:34:21.795Z,3.37
2018-04-29T17:36:49.156Z,3.80
2018-04-29T17:39:16.563Z,3.90
2018-04-29T17:41:45.557Z,3.13
2018-04-29T17:44:12.900Z,3.33
2018-04-29T17:46:40.196Z,5.00
2018-04-29T17:49:07.656Z,4.10
2018-04-29T17:51:34.952Z,3.83
2018-04-29T17:54:04.576Z,4.00
2018-04-29T17:56:31.910Z,8.90
2018-04-29T18:01:31.108Z,3.53
2018-04-29T18:03:58.427Z,3.70
2018-04-29T18:06:25.983Z,3.67
2018-04-29T18:08:53.706Z,4.17
2018-04-29T18:11:21.821Z,3.67
2018-04-29T18:13:49.388Z,3.90
2018-04-29T18:16:18.947Z,3.13
2018-04-29T18:18:48.103Z,3.10
2018-04-29T18:21:16.901Z,3.60
2018-04-29T18:23:44.606Z,2.77
2018-04-29T18:26:12.566Z,3.20
2018-04-29T18:28:40.108Z,3.10
2018-04-29T18:31:07.466Z,2.80
2018-04-29T18:33:34.815Z,4.07
2018-04-29T18:38:34.889Z,3.13
2018-04-29T18:41:02.227Z,3.53
2018-04-29T18:46:04.124Z,3.90
2018-04-29T18:48:40.393Z,3.20
2018-04-29T18:51:07.904Z,3.60
2018-04-29T18:56:12.766Z,2.57
2018-04-29T19:01:42.491Z,3.50
2018-04-29T19:04:12.486Z,3.17
2018-04-29T19:16:47.694Z,3.07
2018-04-29T19:19:17.844Z,3.73
2018-04-29T19:21:45.536Z,5.00
2018-04-29T19:24:18.024Z,3.13
2018-04-29T19:26:49.216Z,3.83
2018-04-29T19:29:16.547Z,3.27
2018-04-29T19:31:44.265Z,3.97
2018-04-29T19:36:44.077Z,4.10
2018-04-29T19:39:11.422Z,3.97
2018-04-29T19:41:38.719Z,3.67
2018-04-29T19:44:06.051Z,3.47
2018-04-29T19:51:39.276Z,3.27
2018-04-29T19:54:06.659Z,3.80
2018-04-29T19:56:33.947Z,4.30
2018-04-29T19:59:05.634Z,4.07
2018-04-29T20:01:32.913Z,4.30
2018-04-29T20:04:00.292Z,3.30
2018-04-29T20:08:59.406Z,3.60
2018-04-29T20:11:26.834Z,3.80
2018-04-29T20:13:54.100Z,3.87
2018-04-29T20:18:54.300Z,4.60
2018-04-29T20:26:30.035Z,3.90
2018-04-29T20:31:30.857Z,3.60
2018-04-29T20:36:29.794Z,4.63
2018-04-29T20:41:30.913Z,4.13
2018-04-29T20:43:59.300Z,4.60
2018-04-29T20:48:58.598Z,4.03
2018-04-29T20:54:00.239Z,4.57
2018-04-29T20:56:27.712Z,3.77
2018-04-29T21:01:31.695Z,3.73
2018-04-29T21:03:59.135Z,4.53
2018-04-29T21:06:26.512Z,3.70
2018-04-29T21:08:54.193Z,4.50
2018-04-29T21:11:22.076Z,4.27
2018-04-29T21:13:49.713Z,3.80
2018-04-29T21:16:17.790Z,3.60
2018-04-29T21:18:47.820Z,3.60
2018-04-29T21:21:15.130Z,3.73
2018-04-29T21:23:43.374Z,3.40
2018-04-29T21:26:10.693Z,3.80
2018-04-29T21:28:38.076Z,3.73
2018-04-29T21:33:37.030Z,4.33
2018-04-29T21:36:04.461Z,3.40
2018-04-29T21:38:31.870Z,3.27
2018-04-29T21:40:59.139Z,4.20
2018-04-29T21:43:26.435Z,4.33
2018-04-29T21:45:53.886Z,4.10
2018-04-29T21:48:21.288Z,4.33
2018-04-29T21:50:48.791Z,3.67
2018-04-29T21:53:17.070Z,3.10
2018-04-29T21:55:44.395Z,3.20
2018-04-29T21:58:11.751Z,2.83
2018-04-29T22:00:39.170Z,3.20
2018-04-29T22:03:08.127Z,2.90
2018-04-29T22:05:38.285Z,2.00
2018-04-29T22:08:05.635Z,3.07
2018-04-29T22:10:32.949Z,2.43
2018-04-29T22:13:03.096Z,2.63
2018-04-29T22:15:30.380Z,2.10
2018-04-29T22:17:57.694Z,2.83
2018-04-29T22:20:25.037Z,2.77
2018-04-29T22:22:52.389Z,3.93
2018-04-29T22:25:19.757Z,3.10
2018-04-29T22:27:47.097Z,2.30
2018-04-29T22:30:14.400Z,2.20
2018-04-29T22:32:41.708Z,3.53
2018-04-29T22:35:09.022Z,2.53
2018-04-29T22:37:36.440Z,2.70
2018-04-29T22:40:03.752Z,2.40
2018-04-29T22:42:31.113Z,2.20
2018-04-29T22:44:58.419Z,2.33
2018-04-29T22:47:25.739Z,1.90
2018-04-29T22:49:53.138Z,2.07
2018-04-29T22:52:20.509Z,2.63
2018-04-29T22:54:47.929Z,3.33
2018-04-29T22:57:15.223Z,2.30
2018-04-29T22:59:42.573Z,2.30
2018-04-29T23:02:09.957Z,1.90
2018-04-29T23:04:37.262Z,2.40
2018-04-29T23:07:04.546Z,3.83
2018-04-29T23:09:31.847Z,1.80
2018-04-29T23:11:59.146Z,3.00
2018-04-29T23:14:26.481Z,2.03
2018-04-29T23:16:53.822Z,1.70
2018-04-29T23:19:21.158Z,2.83
2018-04-29T23:21:48.466Z,4.20
2018-04-29T23:24:15.752Z,2.80
2018-04-29T23:26:43.061Z,2.33
2018-04-29T23:29:10.313Z,1.90
2018-04-29T23:31:37.706Z,2.03
2018-04-29T23:34:04.998Z,2.57
2018-04-29T23:36:32.289Z,3.03
2018-04-29T23:38:59.585Z,2.63
2018-04-29T23:41:26.998Z,2.77
2018-04-29T23:43:54.261Z,3.07
2018-04-29T23:46:21.586Z,2.77
2018-04-29T23:48:49.135Z,3.23
2018-04-29T23:51:16.502Z,3.37
2018-04-29T23:53:43.799Z,2.70
2018-04-29T23:56:11.108Z,2.37
2018-04-29T23:58:38.434Z,4.10
